Time;durP1;ratioP1;P1;durP2;ratioP2;P2;SDS_P1;SDS_P2;PMS_P1;PMS_P2;Temp;Humidity;BMP_temperature;BMP_pressure;BME280_temperature;BME280_humidity;BME280_pressure;Samples;Min_cycle;Max_cycle;Signal;HPM_P1;HPM_P2
2021/12/01 00:00:46;;;;;;;7.80;3.40;;;;;;;2.07;100.00;99352.13;6700339;26;33991;-81
2021/12/01 00:03:52;;;;;;;6.87;3.05;;;;;;;2.25;100.00;99354.34;6701897;26;34661;-80
2021/12/01 00:06:54;;;;;;;6.30;3.10;;;;;;;2.29;100.00;99351.41;6685488;26;34313;-80
2021/12/01 00:09:57;;;;;;;5.80;3.20;;;;;;;2.30;100.00;99347.03;6707401;26;34502;-81
2021/12/01 00:13:06;;;;;;;8.15;3.10;;;;;;;2.32;100.00;99350.31;6700396;26;34439;-81
2021/12/01 00:16:09;;;;;;;5.68;3.15;;;;;;;2.42;100.00;99356.53;6700725;26;34916;-81
2021/12/01 00:19:12;;;;;;;5.00;3.00;;;;;;;2.45;100.00;99350.28;6699781;26;34107;-80
2021/12/01 00:22:15;;;;;;;7.10;3.12;;;;;;;2.53;100.00;99347.94;6699373;26;34474;-80
2021/12/01 00:25:26;;;;;;;4.97;2.90;;;;;;;2.66;100.00;99352.25;6699936;26;34177;-81
2021/12/01 00:28:35;;;;;;;5.53;2.80;;;;;;;2.75;100.00;99362.88;6700134;26;34687;-82
2021/12/01 00:31:42;;;;;;;3.85;2.70;;;;;;;2.84;100.00;99355.28;6701128;26;34686;-81
2021/12/01 00:34:45;;;;;;;4.45;2.35;;;;;;;2.99;100.00;99369.78;6700729;26;34787;-81
2021/12/01 00:37:47;;;;;;;4.55;2.28;;;;;;;2.97;100.00;99353.41;6699990;26;34218;-81
2021/12/01 00:40:51;;;;;;;4.43;2.40;;;;;;;3.04;100.00;99370.28;6700666;26;34735;-81
2021/12/01 00:43:53;;;;;;;4.40;2.50;;;;;;;3.15;100.00;99368.63;6700116;26;34144;-80
2021/12/01 00:47:18;;;;;;;3.03;2.50;;;;;;;3.11;100.00;99367.19;6700569;26;34147;-81
2021/12/01 00:50:27;;;;;;;3.25;2.53;;;;;;;3.27;100.00;99378.16;6699738;26;34270;-80
2021/12/01 00:53:30;;;;;;;3.37;2.30;;;;;;;3.22;100.00;99375.06;6700124;26;34344;-80
2021/12/01 00:56:33;;;;;;;3.85;2.87;;;;;;;3.18;100.00;99368.41;6699935;26;34316;-82
2021/12/01 00:59:37;;;;;;;3.45;2.37;;;;;;;3.21;100.00;99383.84;6700779;26;34427;-81
2021/12/01 01:02:40;;;;;;;4.05;2.30;;;;;;;3.28;100.00;99395.53;6700128;26;34423;-81
2021/12/01 01:05:44;;;;;;;3.42;2.42;;;;;;;3.35;100.00;99407.16;6698987;26;34382;-81
2021/12/01 01:08:49;;;;;;;5.35;2.42;;;;;;;3.33;100.00;99385.53;6698618;26;34437;-80
2021/12/01 01:18:43;;;;;;;3.55;2.25;;;;;;;3.40;100.00;99397.19;6700696;26;34946;-81
2021/12/01 01:21:50;;;;;;;5.82;2.60;;;;;;;3.48;99.76;99401.00;6699332;26;34592;-81
2021/12/01 01:24:53;;;;;;;3.97;2.15;;;;;;;3.54;99.07;99400.53;6698940;26;34374;-81
2021/12/01 01:27:56;;;;;;;5.90;2.08;;;;;;;3.54;99.77;99411.00;6699822;26;34175;-81
2021/12/01 01:30:59;;;;;;;2.80;2.20;;;;;;;3.64;98.90;99405.87;6700097;26;34451;-80
2021/12/01 01:34:03;;;;;;;2.53;2.33;;;;;;;3.71;98.55;99410.53;6700715;26;34150;-80
2021/12/01 01:37:09;;;;;;;2.00;1.75;;;;;;;3.78;98.18;99417.88;6698747;26;34819;-80
2021/12/01 01:40:12;;;;;;;6.35;2.10;;;;;;;3.74;98.20;99416.47;6700667;26;33968;-82
2021/12/01 01:43:18;;;;;;;3.22;2.10;;;;;;;3.80;97.22;99418.59;6700190;26;34722;-81
2021/12/01 01:46:21;;;;;;;3.22;2.28;;;;;;;3.79;97.49;99420.41;6703832;26;34587;-80
2021/12/01 01:52:44;;;;;;;3.35;2.30;;;;;;;3.89;97.29;99415.25;6700782;26;34044;-80
2021/12/01 01:55:54;;;;;;;2.30;2.10;;;;;;;3.83;97.28;99415.75;6699947;26;34257;-80
2021/12/01 01:58:57;;;;;;;1.70;1.60;;;;;;;3.94;96.51;99430.63;6700097;26;34439;-81
2021/12/01 02:02:03;;;;;;;2.42;1.92;;;;;;;3.91;96.18;99434.28;6699598;26;34374;-81
2021/12/01 02:05:07;;;;;;;2.05;1.87;;;;;;;3.86;97.27;99426.81;6699663;26;34772;-81
2021/12/01 02:08:27;;;;;;;2.25;1.90;;;;;;;3.83;97.72;99441.91;6700055;26;34588;-81
2021/12/01 02:11:29;;;;;;;;;;;;;;;3.86;97.23;99431.22;6699709;26;34928;-81
2021/12/01 02:14:32;;;;;;;2.45;1.70;;;;;;;3.91;96.59;99415.97;6699375;26;35164;-81
2021/12/01 02:17:35;;;;;;;3.70;1.77;;;;;;;3.86;97.07;99426.00;6699633;26;34459;-81
2021/12/01 02:20:40;;;;;;;1.92;1.77;;;;;;;3.93;95.88;99421.13;6680853;26;34121;-81
2021/12/01 02:23:49;;;;;;;3.00;1.70;;;;;;;3.91;96.70;99425.62;6700663;26;35023;-81
2021/12/01 02:26:52;;;;;;;1.40;1.30;;;;;;;3.97;95.87;99420.75;6699347;26;34350;-80
2021/12/01 02:29:55;;;;;;;2.47;1.60;;;;;;;3.97;95.87;99412.03;6699499;26;34543;-81
2021/12/01 02:32:59;;;;;;;1.55;1.40;;;;;;;4.07;94.71;99428.69;6699364;26;34097;-81
2021/12/01 02:36:02;;;;;;;1.50;1.40;;;;;;;4.10;94.77;99422.41;6699961;26;34426;-82
2021/12/01 02:39:09;;;;;;;1.65;1.50;;;;;;;4.13;94.53;99422.13;6700625;26;34166;-84
2021/12/01 02:42:19;;;;;;;2.05;1.55;;;;;;;4.25;92.82;99441.28;6699802;26;34195;-81
2021/12/01 02:45:22;;;;;;;1.52;1.42;;;;;;;4.30;92.69;99424.25;6701209;26;34462;-82
2021/12/01 02:48:25;;;;;;;1.92;1.70;;;;;;;4.28;93.00;99420.09;6701905;26;35289;-82
2021/12/01 02:51:31;;;;;;;1.30;1.27;;;;;;;4.30;92.46;99429.50;6702056;26;34303;-83
2021/12/01 02:54:34;;;;;;;1.52;1.42;;;;;;;4.37;91.96;99421.16;6701515;26;34516;-82
2021/12/01 02:57:56;;;;;;;0.98;0.98;;;;;;;4.39;91.65;99427.09;6700895;26;34223;-81
2021/12/01 03:01:02;;;;;;;1.55;1.10;;;;;;;4.39;91.42;99419.25;6701421;26;34916;-82
2021/12/01 03:04:07;;;;;;;1.50;1.35;;;;;;;4.41;91.39;99426.00;6701727;26;34252;-81
2021/12/01 03:07:11;;;;;;;1.42;1.33;;;;;;;4.25;93.07;99415.13;6702530;26;34221;-82
2021/12/01 03:10:14;;;;;;;1.30;1.20;;;;;;;4.04;94.04;99423.72;6700873;26;34434;-81
2021/12/01 03:13:21;;;;;;;2.30;1.00;;;;;;;4.09;93.80;99431.22;6700711;26;32670;-81
2021/12/01 03:16:24;;;;;;;1.75;1.65;;;;;;;4.04;94.42;99428.94;6700604;26;34613;-82
2021/12/01 03:19:27;;;;;;;1.58;0.98;;;;;;;3.99;94.99;99426.69;6700800;26;34312;-81
2021/12/01 03:22:30;;;;;;;0.90;0.90;;;;;;;3.98;95.15;99429.41;6701070;26;34015;-81
2021/12/01 03:25:35;;;;;;;1.33;1.25;;;;;;;3.92;95.23;99435.97;6704237;26;34173;-81
2021/12/01 03:28:39;;;;;;;1.33;1.20;;;;;;;3.92;95.41;99435.16;6703320;26;34991;-81
2021/12/01 03:31:42;;;;;;;1.40;1.30;;;;;;;3.89;96.09;99444.03;6700623;26;33922;-81
2021/12/01 03:34:46;;;;;;;2.92;1.27;;;;;;;3.84;95.99;99454.06;6699724;26;34003;-81
2021/12/01 03:37:56;;;;;;;1.60;1.48;;;;;;;3.89;95.77;99456.31;6699650;26;34198;-81
2021/12/01 03:41:02;;;;;;;1.52;1.33;;;;;;;3.96;95.66;99465.34;6699224;26;35444;-82
2021/12/01 03:44:05;;;;;;;1.40;1.30;;;;;;;3.98;95.65;99464.28;6701467;26;34894;-81
2021/12/01 03:47:08;;;;;;;1.62;1.40;;;;;;;4.00;95.20;99453.69;6699962;26;34407;-81
2021/12/01 03:50:12;;;;;;;1.60;1.50;;;;;;;4.08;95.08;99468.81;6701977;26;34782;-81
2021/12/01 03:53:16;;;;;;;3.62;1.77;;;;;;;4.10;95.44;99470.34;6699833;26;34364;-82
2021/12/01 03:56:20;;;;;;;1.73;1.45;;;;;;;4.16;93.85;99458.56;6700600;26;35061;-81
2021/12/01 03:59:22;;;;;;;1.92;1.35;;;;;;;4.15;94.97;99456.88;6701035;26;34262;-81
2021/12/01 04:02:26;;;;;;;1.77;1.48;;;;;;;4.17;94.82;99452.37;6701273;26;34702;-81
2021/12/01 04:05:36;;;;;;;4.65;1.73;;;;;;;4.02;96.03;99457.03;6701370;26;34781;-81
2021/12/01 04:08:42;;;;;;;1.60;1.50;;;;;;;4.00;95.91;99458.94;6699280;26;34883;-81
2021/12/01 04:11:45;;;;;;;1.90;1.75;;;;;;;3.97;96.10;99465.25;6702852;26;34151;-81
2021/12/01 04:14:50;;;;;;;1.62;1.52;;;;;;;4.06;95.72;99478.56;6700355;26;34616;-81
2021/12/01 04:17:53;;;;;;;2.25;2.05;;;;;;;4.10;95.71;99482.59;6699352;26;35005;-81
2021/12/01 04:20:59;;;;;;;1.67;1.58;;;;;;;3.98;96.36;99490.47;6700740;26;34359;-81
2021/12/01 04:24:03;;;;;;;2.25;1.60;;;;;;;4.14;95.60;99497.09;6700577;26;34223;-81
2021/12/01 04:27:07;;;;;;;1.70;1.60;;;;;;;4.00;96.07;99504.25;6699739;26;34223;-81
2021/12/01 04:30:13;;;;;;;1.92;1.70;;;;;;;3.92;96.22;99493.53;6701188;26;33864;-81
2021/12/01 04:33:16;;;;;;;2.17;1.50;;;;;;;3.82;97.13;99505.66;6703100;26;34264;-81
2021/12/01 04:36:31;;;;;;;2.22;1.92;;;;;;;3.86;97.25;99497.47;6700951;26;33950;-82
2021/12/01 04:39:34;;;;;;;1.95;1.80;;;;;;;3.82;97.60;99503.06;6699702;26;34156;-82
2021/12/01 04:42:40;;;;;;;2.70;1.70;;;;;;;3.68;97.94;99512.78;6701606;26;34738;-82
2021/12/01 04:45:44;;;;;;;1.83;1.73;;;;;;;3.79;97.25;99527.69;6701098;26;33953;-82
2021/12/01 04:48:48;;;;;;;1.85;1.45;;;;;;;3.85;96.37;99529.81;6701873;26;34892;-82
2021/12/01 04:51:55;;;;;;;1.70;1.60;;;;;;;3.70;98.53;99531.00;6701950;26;34786;-82
2021/12/01 04:54:58;;;;;;;1.87;1.77;;;;;;;3.51;99.05;99536.75;6700836;26;34547;-82
2021/12/01 04:58:02;;;;;;;2.25;1.70;;;;;;;3.48;98.96;99537.00;6701691;26;34989;-82
2021/12/01 05:01:07;;;;;;;2.12;2.03;;;;;;;3.42;99.45;99540.88;6701538;26;35008;-82
2021/12/01 05:04:12;;;;;;;1.80;1.60;;;;;;;3.32;100.00;99542.53;6700731;26;34021;-82
2021/12/01 05:07:15;;;;;;;2.28;1.83;;;;;;;3.29;100.00;99540.97;6704719;26;34268;-81
2021/12/01 05:10:18;;;;;;;3.47;2.20;;;;;;;3.33;99.78;99552.84;6700049;26;35030;-81
2021/12/01 05:13:21;;;;;;;2.30;2.10;;;;;;;3.29;100.00;99564.50;6701172;26;35031;-81
2021/12/01 05:16:26;;;;;;;2.25;2.03;;;;;;;3.26;100.00;99562.09;6701667;26;34689;-80
2021/12/01 05:19:29;;;;;;;2.30;2.10;;;;;;;3.34;100.00;99557.13;6699911;26;34785;-80
2021/12/01 05:22:32;;;;;;;2.15;2.00;;;;;;;3.28;100.00;99555.00;6701520;26;34800;-81
2021/12/01 05:25:36;;;;;;;2.83;2.17;;;;;;;3.28;100.00;99562.84;6701299;26;34212;-81
2021/12/01 05:28:41;;;;;;;2.15;1.95;;;;;;;3.34;100.00;99582.47;6699426;26;33977;-81
2021/12/01 05:31:44;;;;;;;2.12;1.92;;;;;;;3.26;100.00;99590.88;6704469;26;34916;-80
2021/12/01 05:34:48;;;;;;;2.00;1.90;;;;;;;3.34;99.91;99598.97;6702281;26;34331;-81
2021/12/01 05:37:52;;;;;;;1.90;1.75;;;;;;;3.49;98.79;99609.28;6701250;26;34707;-81
2021/12/01 05:40:55;;;;;;;1.90;1.80;;;;;;;3.46;99.21;99627.78;6699428;26;35419;-82
2021/12/01 05:43:58;;;;;;;1.70;1.60;;;;;;;3.61;98.27;99626.69;6699508;26;33988;-81
2021/12/01 05:47:02;;;;;;;1.75;1.65;;;;;;;3.61;98.65;99634.53;6699426;26;34322;-81
2021/12/01 05:50:05;;;;;;;2.03;1.90;;;;;;;3.69;98.07;99639.19;6699221;26;34151;-81
2021/12/01 05:53:09;;;;;;;2.72;1.80;;;;;;;3.81;97.48;99647.91;6698360;26;34463;-80
2021/12/01 05:56:12;;;;;;;3.12;1.58;;;;;;;3.79;97.49;99650.66;6700654;26;34933;-81
2021/12/01 05:59:14;;;;;;;1.85;1.33;;;;;;;3.89;97.39;99652.56;6699317;26;34182;-81
2021/12/01 06:02:17;;;;;;;2.22;1.20;;;;;;;3.86;97.56;99657.09;6701008;26;35252;-81
2021/12/01 06:05:21;;;;;;;2.03;1.90;;;;;;;3.85;97.69;99659.81;6702654;26;34548;-80
2021/12/01 06:08:24;;;;;;;2.35;1.73;;;;;;;3.79;99.15;99660.25;6700258;26;35118;-82
2021/12/01 06:11:27;;;;;;;3.33;2.03;;;;;;;3.78;99.05;99664.69;6698540;26;33927;-81
2021/12/01 06:14:31;;;;;;;3.05;2.12;;;;;;;3.80;99.58;99669.78;6698810;26;34235;-81
2021/12/01 06:17:36;;;;;;;2.33;1.75;;;;;;;3.74;99.02;99673.69;6698435;26;34440;-81
2021/12/01 06:20:46;;;;;;;3.75;2.05;;;;;;;3.77;100.00;99678.69;6700871;26;34467;-82
2021/12/01 06:23:49;;;;;;;2.80;1.95;;;;;;;3.75;100.00;99690.25;6700847;26;34420;-81
2021/12/01 06:26:59;;;;;;;3.08;2.17;;;;;;;3.85;99.59;99691.22;6701712;26;34268;-81
2021/12/01 06:30:04;;;;;;;2.35;1.90;;;;;;;3.83;99.04;99706.19;6704264;26;34196;-81
2021/12/01 06:33:07;;;;;;;2.30;2.10;;;;;;;3.83;99.67;99719.28;6700851;26;34836;-82
2021/12/01 06:36:10;;;;;;;2.83;2.17;;;;;;;3.83;100.00;99720.09;6702477;26;34752;-81
2021/12/01 06:39:16;;;;;;;5.22;2.20;;;;;;;4.00;99.25;99725.91;6701647;26;34472;-81
2021/12/01 06:42:35;;;;;;;2.20;1.87;;;;;;;4.05;99.23;99725.56;6701928;26;33953;-80
2021/12/01 06:45:38;;;;;;;4.25;2.30;;;;;;;3.97;98.84;99734.81;6700352;26;35517;-84
2021/12/01 06:48:43;;;;;;;3.50;2.58;;;;;;;3.94;99.34;99737.66;6705594;26;34089;-81
2021/12/01 06:51:46;;;;;;;2.85;2.55;;;;;;;3.99;99.24;99727.69;6702778;26;34170;-81
2021/12/01 06:54:52;;;;;;;3.50;2.58;;;;;;;4.01;98.88;99728.41;6700937;26;34729;-81
2021/12/01 06:57:54;;;;;;;3.80;2.30;;;;;;;4.08;98.77;99727.97;6700941;26;34053;-81
2021/12/01 07:01:00;;;;;;;3.33;2.20;;;;;;;3.99;100.00;99730.31;6702023;26;34241;-82
2021/12/01 07:04:03;;;;;;;3.30;2.53;;;;;;;3.96;100.00;99730.53;6700126;26;34436;-82
2021/12/01 07:07:06;;;;;;;4.78;2.70;;;;;;;3.92;100.00;99730.88;6700657;26;34310;-81
2021/12/01 07:10:12;;;;;;;3.12;2.40;;;;;;;4.02;100.00;99730.06;6699097;26;34290;-81
2021/12/01 07:13:15;;;;;;;2.67;2.45;;;;;;;3.92;100.00;99734.31;6700580;26;33958;-81
2021/12/01 07:16:22;;;;;;;4.50;2.45;;;;;;;4.05;100.00;99728.19;6699681;26;33012;-81
2021/12/01 07:19:25;;;;;;;3.50;2.87;;;;;;;4.13;100.00;99738.91;6701156;26;35705;-81
2021/12/01 07:22:27;;;;;;;4.28;2.60;;;;;;;4.05;100.00;99746.50;6700632;26;34490;-81
2021/12/01 07:25:32;;;;;;;3.00;2.28;;;;;;;4.13;100.00;99746.75;6699830;26;34491;-81
2021/12/01 07:28:35;;;;;;;3.87;2.50;;;;;;;4.24;98.50;99733.72;6699313;26;35538;-82
2021/12/01 07:31:40;;;;;;;4.07;2.85;;;;;;;4.31;97.62;99734.94;6699870;26;34893;-81
2021/12/01 07:34:43;;;;;;;3.50;2.55;;;;;;;4.41;97.39;99718.53;6701020;26;34477;-81
2021/12/01 07:37:49;;;;;;;3.12;2.45;;;;;;;4.29;98.38;99713.25;6699793;26;34844;-81
2021/12/01 07:40:52;;;;;;;5.35;3.03;;;;;;;4.45;97.57;99691.97;6701024;26;35395;-81
2021/12/01 07:43:54;;;;;;;5.78;3.03;;;;;;;4.49;96.85;99684.72;6701011;26;34923;-81
2021/12/01 07:46:57;;;;;;;4.18;2.70;;;;;;;4.62;96.34;99690.69;6700849;26;34273;-81
2021/12/01 07:50:00;;;;;;;5.12;3.05;;;;;;;4.61;95.77;99699.50;6701131;26;34862;-81
2021/12/01 07:53:04;;;;;;;6.43;3.10;;;;;;;4.78;95.92;99710.50;6705837;26;34018;-81
2021/12/01 07:56:07;;;;;;;5.40;2.83;;;;;;;4.74;96.93;99722.16;6699560;26;34003;-81
2021/12/01 07:59:11;;;;;;;5.87;3.12;;;;;;;4.75;96.56;99718.59;6701766;26;34579;-81
2021/12/01 08:02:13;;;;;;;6.55;3.40;;;;;;;4.87;96.60;99709.78;6701239;26;34197;-80
2021/12/01 08:05:16;;;;;;;6.85;3.67;;;;;;;5.00;96.94;99714.06;6701129;26;34443;-81
2021/12/01 08:08:19;;;;;;;7.55;3.10;;;;;;;5.12;95.86;99713.09;6699645;26;33662;-81
2021/12/01 08:11:22;;;;;;;3.92;2.50;;;;;;;5.00;96.55;99721.94;6701474;26;34145;-80
2021/12/01 08:14:26;;;;;;;6.28;2.72;;;;;;;4.87;96.61;99709.78;6701465;26;35169;-81
2021/12/01 08:17:28;;;;;;;4.15;2.60;;;;;;;4.90;97.15;99713.94;6702204;26;34699;-81
2021/12/01 08:20:33;;;;;;;4.18;2.45;;;;;;;5.00;97.45;99703.56;6707658;26;34493;-81
2021/12/01 08:23:40;;;;;;;3.25;2.72;;;;;;;5.13;96.84;99699.00;6703263;26;35461;-81
2021/12/01 08:26:44;;;;;;;3.67;2.85;;;;;;;5.06;96.75;99698.69;6700323;26;34456;-81
2021/12/01 08:29:48;;;;;;;4.22;2.40;;;;;;;5.03;97.57;99687.59;6702615;26;35028;-81
2021/12/01 08:32:55;;;;;;;4.67;2.73;;;;;;;5.07;98.23;99681.16;6706976;26;33965;-84
2021/12/01 08:36:03;;;;;;;3.28;2.55;;;;;;;4.89;100.00;99686.06;6701478;26;34612;-82
2021/12/01 08:39:07;;;;;;;3.05;2.50;;;;;;;4.82;100.00;99675.22;6701255;26;35702;-82
2021/12/01 08:42:12;;;;;;;3.40;2.70;;;;;;;5.01;100.00;99673.78;6700072;26;34773;-81
2021/12/01 08:45:17;;;;;;;3.05;2.40;;;;;;;5.08;100.00;99673.16;6701536;26;34973;-81
2021/12/01 08:48:23;;;;;;;5.53;2.37;;;;;;;5.20;100.00;99679.25;6700805;26;34038;-81
2021/12/01 08:51:26;;;;;;;3.25;2.30;;;;;;;5.22;100.00;99686.97;6699550;26;35023;-81
2021/12/01 08:54:29;;;;;;;5.75;2.70;;;;;;;5.32;100.00;99702.81;6701425;26;33808;-81
2021/12/01 08:57:32;;;;;;;3.08;2.17;;;;;;;5.47;100.00;99695.50;6699360;26;34314;-81
2021/12/01 09:00:37;;;;;;;4.30;3.03;;;;;;;5.61;100.00;99697.00;6700289;26;34180;-82
2021/12/01 09:03:40;;;;;;;4.18;2.80;;;;;;;5.58;100.00;99692.84;6701292;26;34021;-81
2021/12/01 09:06:46;;;;;;;6.45;2.95;;;;;;;5.49;100.00;99694.41;6701450;26;33993;-82
2021/12/01 09:09:49;;;;;;;6.00;3.70;;;;;;;5.72;100.00;99692.59;6682222;26;35249;-81
2021/12/01 09:12:56;;;;;;;5.40;3.42;;;;;;;5.78;99.00;99690.41;6705594;26;34327;-81
2021/12/01 09:15:59;;;;;;;5.90;3.17;;;;;;;5.72;99.90;99673.34;6699181;26;34220;-82
2021/12/01 09:19:02;;;;;;;8.75;3.40;;;;;;;5.79;100.00;99674.53;6701274;26;34083;-82
2021/12/01 09:22:05;;;;;;;8.05;3.20;;;;;;;6.00;100.00;99676.38;6700991;26;34931;-81
2021/12/01 09:25:09;;;;;;;7.30;3.47;;;;;;;6.07;98.27;99676.72;6701440;26;33744;-82
2021/12/01 09:28:14;;;;;;;7.60;3.17;;;;;;;6.27;98.63;99682.91;6700381;26;34006;-82
2021/12/01 09:31:18;;;;;;;6.22;2.85;;;;;;;6.40;99.81;99682.72;6700120;26;34298;-82
2021/12/01 09:34:21;;;;;;;4.43;2.60;;;;;;;6.38;100.00;99674.13;6699664;26;34959;-81
2021/12/01 09:37:23;;;;;;;2.95;2.47;;;;;;;6.41;100.00;99673.87;6701582;26;35040;-83
2021/12/01 09:40:27;;;;;;;3.72;2.67;;;;;;;6.51;100.00;99664.25;6700546;26;33619;-82
2021/12/01 09:43:31;;;;;;;3.90;2.60;;;;;;;6.53;100.00;99651.78;6699944;26;34188;-82
2021/12/01 09:46:34;;;;;;;4.75;2.42;;;;;;;6.27;100.00;99646.12;6699512;26;33693;-82
2021/12/01 09:49:38;;;;;;;6.22;2.80;;;;;;;6.18;100.00;99643.31;6699888;26;34387;-81
2021/12/01 09:52:42;;;;;;;2.95;2.40;;;;;;;6.01;99.99;99636.03;6702476;26;34702;-81
2021/12/01 09:55:45;;;;;;;3.72;2.40;;;;;;;6.11;100.00;99636.94;6700712;26;35431;-81
2021/12/01 09:58:48;;;;;;;9.27;3.28;;;;;;;6.32;100.00;99633.44;6699556;26;33911;-83
2021/12/01 10:01:52;;;;;;;6.75;3.50;;;;;;;6.94;98.51;99617.63;6701010;26;34186;-82
2021/12/01 10:04:55;;;;;;;8.73;3.53;;;;;;;7.30;93.55;99615.34;6683589;26;34236;-82
2021/12/01 10:07:57;;;;;;;6.30;3.40;;;;;;;7.56;94.75;99613.00;6701857;26;34630;-82
2021/12/01 10:11:25;;;;;;;5.87;3.65;;;;;;;7.62;93.17;99616.88;6701899;26;34939;-82
2021/12/01 10:14:28;;;;;;;6.70;3.95;;;;;;;7.51;94.47;99620.50;6703800;26;34237;-82
2021/12/01 10:17:37;;;;;;;9.38;4.50;;;;;;;7.32;95.75;99616.06;6706914;26;34206;-81
2021/12/01 10:20:40;;;;;;;9.93;4.82;;;;;;;7.13;96.11;99601.06;6704408;26;34525;-81
2021/12/01 10:24:03;;;;;;;11.70;5.20;;;;;;;6.97;98.37;99603.41;6702684;26;34397;-82
2021/12/01 10:27:12;;;;;;;10.40;4.75;;;;;;;7.20;97.64;99617.12;6702818;26;35129;-82
2021/12/01 10:30:44;;;;;;;15.15;5.03;;;;;;;7.08;97.87;99614.63;6702295;26;34229;-82
2021/12/01 10:33:47;;;;;;;10.85;4.97;;;;;;;7.20;97.17;99612.72;6704738;26;34031;-82
2021/12/01 10:37:26;;;;;;;11.70;4.87;;;;;;;7.17;95.90;99612.16;6702753;26;34192;-82
2021/12/01 10:40:29;;;;;;;12.52;4.93;;;;;;;7.21;95.82;99619.63;6702465;26;34593;-82
2021/12/01 10:43:44;;;;;;;10.30;4.57;;;;;;;7.32;94.00;99616.06;6704390;26;34294;-81
2021/12/01 10:46:52;;;;;;;12.65;5.30;;;;;;;7.37;93.38;99613.84;6703191;26;34154;-81
2021/12/01 10:49:57;;;;;;;10.88;4.80;;;;;;;7.41;92.97;99609.97;6702574;26;34484;-81
2021/12/01 10:53:09;;;;;;;15.50;5.45;;;;;;;7.18;93.45;99605.91;6704206;26;34552;-82
2021/12/01 10:56:14;;;;;;;13.13;5.18;;;;;;;7.31;92.88;99614.38;6704180;26;34028;-82
2021/12/01 10:59:17;;;;;;;13.95;5.12;;;;;;;6.90;93.06;99603.94;6703051;26;34836;-82
2021/12/01 11:02:22;;;;;;;8.80;4.70;;;;;;;6.91;91.46;99602.97;6703102;26;34973;-82
2021/12/01 11:05:30;;;;;;;11.77;4.93;;;;;;;6.93;92.29;99597.56;6702132;26;34159;-81
2021/12/01 11:08:39;;;;;;;10.98;4.95;;;;;;;7.05;90.20;99588.59;6702868;26;34100;-81
2021/12/01 11:11:52;;;;;;;12.77;4.87;;;;;;;7.09;89.66;99590.00;6700907;26;34144;-82
2021/12/01 11:15:20;;;;;;;12.32;5.40;;;;;;;7.15;89.59;99587.78;6704884;26;34882;-82
2021/12/01 11:18:28;;;;;;;13.82;5.05;;;;;;;7.35;85.38;99581.56;6710119;26;35429;-82
2021/12/01 11:21:41;;;;;;;10.57;4.80;;;;;;;7.46;85.65;99567.44;6705766;26;34429;-86
2021/12/01 11:24:44;;;;;;;8.80;4.82;;;;;;;7.51;83.67;99572.28;6702027;26;33843;-84
2021/12/01 11:27:48;;;;;;;14.32;5.60;;;;;;;7.67;83.49;99556.75;6702829;26;34324;-83
2021/12/01 11:30:56;;;;;;;11.85;4.85;;;;;;;7.89;83.76;99560.88;6702156;26;34042;-82
2021/12/01 11:34:06;;;;;;;10.38;4.78;;;;;;;7.80;78.77;99558.25;6702636;26;33947;-82
2021/12/01 11:37:10;;;;;;;12.45;4.95;;;;;;;7.45;81.72;99541.25;6703327;26;34596;-82
2021/12/01 11:40:13;;;;;;;15.25;5.30;;;;;;;7.52;81.14;99526.56;6704768;26;34413;-82
2021/12/01 11:43:20;;;;;;;13.27;4.90;;;;;;;7.28;83.01;99514.66;6706202;26;34730;-82
2021/12/01 11:46:23;;;;;;;13.80;4.90;;;;;;;7.51;81.34;99509.09;6708413;26;35441;-82
2021/12/01 11:49:28;;;;;;;12.18;5.00;;;;;;;7.51;80.64;99503.84;6705987;26;35238;-82
2021/12/01 11:52:57;;;;;;;12.85;4.85;;;;;;;7.31;81.65;99493.34;6701721;26;33783;-82
2021/12/01 11:56:13;;;;;;;8.02;4.30;;;;;;;7.35;83.72;99489.47;6682651;26;34422;-83
2021/12/01 11:59:16;;;;;;;10.07;4.35;;;;;;;7.55;81.79;99490.25;6702532;26;34331;-82
2021/12/01 12:02:18;;;;;;;9.20;4.37;;;;;;;7.68;81.03;99484.72;6703703;26;34111;-82
2021/12/01 12:05:21;;;;;;;11.95;5.15;;;;;;;7.47;81.90;99471.72;6706250;26;34850;-82
2021/12/01 12:08:53;;;;;;;11.07;4.90;;;;;;;7.69;83.04;99453.94;6703570;26;34471;-82
2021/12/01 12:12:11;;;;;;;14.50;4.90;;;;;;;7.80;80.96;99460.84;6686163;26;34247;-82
2021/12/01 12:15:34;;;;;;;13.23;5.07;;;;;;;7.87;79.90;99451.38;6702716;26;34812;-82
2021/12/01 12:18:40;;;;;;;13.95;4.47;;;;;;;7.97;78.69;99441.62;6704339;26;35286;-82
2021/12/01 12:21:58;;;;;;;10.30;4.37;;;;;;;8.19;78.09;99431.69;6701505;26;34116;-82
2021/12/01 12:25:02;;;;;;;;;;;;;;;8.01;75.67;99424.56;6702467;26;34269;-82
2021/12/01 12:28:31;;;;;;;17.83;4.72;;;;;;;8.34;76.10;99421.47;6701863;26;34029;-82
2021/12/01 12:31:35;;;;;;;10.18;4.50;;;;;;;8.33;77.11;99423.28;6702588;26;33860;-83
2021/12/01 12:34:55;;;;;;;11.30;4.25;;;;;;;8.51;76.11;99422.50;6703054;26;34496;-83
2021/12/01 12:38:08;;;;;;;10.98;4.60;;;;;;;8.57;75.08;99427.19;6702375;26;34580;-82
2021/12/01 12:41:13;;;;;;;10.55;4.45;;;;;;;8.58;74.50;99428.00;6702378;26;32883;-82
2021/12/01 12:44:40;;;;;;;14.73;4.82;;;;;;;8.75;71.95;99428.97;6702018;26;34105;-83
2021/12/01 12:47:58;;;;;;;11.88;4.60;;;;;;;8.44;72.38;99400.31;6701624;26;34168;-84
2021/12/01 12:51:14;;;;;;;9.02;4.12;;;;;;;8.40;73.32;99412.13;6702684;26;34079;-82
2021/12/01 12:54:17;;;;;;;11.60;4.72;;;;;;;8.46;74.67;99404.47;6702701;26;34448;-83
2021/12/01 12:57:22;;;;;;;10.75;4.40;;;;;;;8.10;74.54;99401.78;6702955;26;34544;-83
2021/12/01 13:00:46;;;;;;;11.80;4.60;;;;;;;8.23;74.43;99404.06;6702211;26;35575;-82
2021/12/01 13:03:53;;;;;;;13.20;4.85;;;;;;;8.21;75.85;99389.38;6702780;26;35131;-82
2021/12/01 13:06:58;;;;;;;9.57;4.40;;;;;;;8.13;73.88;99393.56;6702578;26;34706;-82
2021/12/01 13:10:22;;;;;;;9.43;4.40;;;;;;;8.13;75.12;99379.59;6701478;26;34377;-82
2021/12/01 13:13:45;;;;;;;10.57;4.20;;;;;;;8.19;74.59;99360.53;6702079;26;34710;-82
2021/12/01 13:16:48;;;;;;;10.55;4.43;;;;;;;8.09;75.12;99378.22;6700006;26;34061;-82
2021/12/01 13:19:54;;;;;;;11.52;4.28;;;;;;;7.76;75.30;99359.41;6701494;26;34145;-82
2021/12/01 13:23:10;;;;;;;8.25;4.12;;;;;;;7.75;77.00;99373.53;6701446;26;34594;-82
2021/12/01 13:26:13;;;;;;;10.32;4.50;;;;;;;7.60;76.68;99365.28;6702522;26;34166;-82
2021/12/01 13:29:19;;;;;;;13.25;4.12;;;;;;;7.54;77.00;99372.78;6702841;26;34413;-82
2021/12/01 13:32:38;;;;;;;11.30;4.35;;;;;;;7.45;78.96;99372.84;6701374;26;34291;-82
2021/12/01 13:35:41;;;;;;;11.45;4.60;;;;;;;7.49;78.71;99375.03;6701415;26;34213;-83
2021/12/01 13:38:56;;;;;;;15.55;5.00;;;;;;;7.51;79.03;99367.81;6701947;26;34399;-82
2021/12/01 13:42:03;;;;;;;14.60;4.93;;;;;;;7.40;77.49;99371.44;6700721;26;33919;-82
2021/12/01 13:45:24;;;;;;;11.60;4.53;;;;;;;7.28;77.37;99369.97;6697877;26;34035;-84
2021/12/01 13:48:27;;;;;;;9.18;4.45;;;;;;;7.22;78.66;99367.91;6700852;26;34212;-83
2021/12/01 13:51:36;;;;;;;12.73;4.50;;;;;;;7.25;79.13;99372.91;6701444;26;33652;-83
2021/12/01 13:54:47;;;;;;;11.52;4.47;;;;;;;7.18;78.94;99366.53;6702032;26;33622;-82
2021/12/01 13:58:15;;;;;;;8.45;3.90;;;;;;;7.19;79.52;99366.41;6702365;26;34162;-82
2021/12/01 14:01:18;;;;;;;14.70;4.43;;;;;;;7.21;77.72;99361.00;6701426;26;34993;-81
2021/12/01 14:04:22;;;;;;;9.40;4.37;;;;;;;7.09;79.93;99363.78;6701103;26;35283;-81
2021/12/01 14:07:26;;;;;;;10.13;4.10;;;;;;;7.15;78.88;99362.38;6681335;26;34945;-82
2021/12/01 14:10:38;;;;;;;15.45;4.10;;;;;;;7.20;78.09;99361.97;6700590;26;34334;-83
2021/12/01 14:13:42;;;;;;;10.65;4.28;;;;;;;7.05;79.37;99367.66;6701245;26;34671;-82
2021/12/01 14:16:53;;;;;;;14.45;4.37;;;;;;;7.16;78.97;99364.06;6703406;26;34590;-83
2021/12/01 14:19:57;;;;;;;11.50;4.30;;;;;;;6.99;79.76;99352.47;6705818;26;34180;-84
2021/12/01 14:23:02;;;;;;;13.60;4.55;;;;;;;6.88;80.12;99350.81;6701901;26;34221;-84
2021/12/01 14:26:05;;;;;;;12.70;4.57;;;;;;;6.91;80.69;99353.16;6699490;26;34181;-84
2021/12/01 14:29:11;;;;;;;12.40;4.50;;;;;;;6.84;81.18;99348.59;6702743;26;34607;-83
2021/12/01 14:32:13;;;;;;;11.05;4.37;;;;;;;6.84;81.24;99340.72;6702152;26;34168;-83
2021/12/01 14:35:20;;;;;;;11.20;4.30;;;;;;;6.90;81.85;99327.03;6701126;26;34170;-84
2021/12/01 14:38:32;;;;;;;11.52;4.30;;;;;;;6.80;82.05;99338.37;6703335;26;34628;-84
2021/12/01 14:41:35;;;;;;;11.82;4.60;;;;;;;6.74;83.05;99331.03;6701909;26;34951;-84
2021/12/01 14:44:43;;;;;;;12.13;4.65;;;;;;;6.79;83.41;99323.56;6700938;26;34300;-84
2021/12/01 14:47:59;;;;;;;15.85;4.80;;;;;;;6.75;84.64;99319.56;6702608;26;34871;-84
2021/12/01 14:51:03;;;;;;;13.98;4.55;;;;;;;6.70;84.29;99313.06;6702143;26;33981;-84
2021/12/01 14:54:35;;;;;;;13.20;4.57;;;;;;;6.62;84.37;99314.59;6701623;26;34198;-84